ESOK/KSD METAR and TAF weather

Enter ICAO airport designator
Station Type Date Time Source
ESOK METAR 2020/06/06 19:50 UTC NOAA

ESOK 061950Z AUTO 23015KT 9999 BKN057/// 12/07 Q0992


Station Type Date Time Source
ESOK Decoded METAR 2020/06/06 19:50 UTC NOAA

Karlstad , Sweden (ESOK) 59-26-41N 013-20-15E
Jun 06, 2020 - 03:50 PM EDT / 2020.06.06 1950 UTC
Wind: from the SW (230 degrees) at 17 MPH (15 KT):0
Visibility: greater than 7 mile(s):0
Sky conditions: mostly cloudy
Temperature: 53 F (12 C)
Dew Point: 44 F (7 C)
Relative Humidity: 71%
Pressure (altimeter): 29.29 in. Hg (0992 hPa)
ob: ESOK 061950Z AUTO 23015KT 9999 BKN057/// 12/07 Q0992
cycle: 20

Station Type Date Time Source
ESOK TAF 2017/05/22 06:33 UTC NOAA

TAF ESOK 220530Z 2206/2224 28006KT CAVOK

Example: see airport list